createdAt,value
2022-09-02T00:04:42.554Z,76.1
2022-09-02T00:10:15.245Z,76
2022-09-02T00:15:50.045Z,76
2022-09-02T00:21:24.952Z,75.6
2022-09-02T00:26:59.738Z,75.5
2022-09-02T00:32:34.806Z,75.4
2022-09-02T00:38:09.527Z,75.3
2022-09-02T00:43:44.674Z,75.3
2022-09-02T00:49:19.451Z,75.3
2022-09-02T00:54:57.715Z,75.4
2022-09-02T01:00:35.163Z,75.5
2022-09-02T01:06:09.884Z,75.7
2022-09-02T01:11:45.697Z,75.7
2022-09-02T01:17:20.602Z,76.2
2022-09-02T01:22:55.404Z,76.3
2022-09-02T01:28:31.152Z,76.2
2022-09-02T01:34:06.104Z,76.1
2022-09-02T01:39:40.909Z,76.3
2022-09-02T01:45:16.608Z,76.5
2022-09-02T01:50:51.511Z,76.6
2022-09-02T01:56:26.301Z,76.6
2022-09-02T02:02:23.076Z,76.7
2022-09-02T02:07:58.527Z,76.9
2022-09-02T02:13:33.257Z,76.9
2022-09-02T02:19:08.226Z,76.9
2022-09-02T02:24:43.086Z,77
2022-09-02T02:30:18.700Z,77
2022-09-02T02:35:55.835Z,77.1
2022-09-02T02:41:31.181Z,77.3
2022-09-02T02:47:06.422Z,77.4
2022-09-02T02:52:41.233Z,77.5
2022-09-02T02:58:17.090Z,77.7
2022-09-02T03:04:14.584Z,77.7
2022-09-02T03:09:47.493Z,77.9
2022-09-02T03:15:22.313Z,78.1
2022-09-02T03:20:57.165Z,78.1
2022-09-02T03:26:31.868Z,78.1
2022-09-02T03:32:08.540Z,78.3
2022-09-02T03:37:44.164Z,78.5
2022-09-02T03:43:20.091Z,78.6
2022-09-02T03:48:54.857Z,78.6
2022-09-02T03:54:29.718Z,78.7
2022-09-02T04:00:04.703Z,78.8
2022-09-02T04:05:39.813Z,78.9
2022-09-02T04:11:14.563Z,79
2022-09-02T04:16:49.432Z,79.1
2022-09-02T04:22:24.551Z,79.2
2022-09-02T04:27:59.439Z,79.4
2022-09-02T04:33:34.690Z,79.5
2022-09-02T04:39:11.224Z,79.6
2022-09-02T04:44:46.250Z,79.8
2022-09-02T04:50:21.000Z,79.8
2022-09-02T04:55:58.399Z,79.9
2022-09-02T05:01:55.561Z,79.8
2022-09-02T05:07:31.621Z,80
2022-09-02T05:13:06.537Z,80.2
2022-09-02T05:18:41.668Z,80.2
2022-09-02T05:24:16.435Z,80.3
2022-09-02T05:29:51.179Z,80.2
2022-09-02T05:35:25.955Z,80.2
2022-09-02T05:41:00.662Z,80.3
2022-09-02T05:46:35.877Z,80.2
2022-09-02T05:52:10.770Z,80.2
2022-09-02T05:57:46.476Z,80.2
2022-09-02T06:03:22.066Z,80.4
2022-09-02T06:08:58.288Z,80.5
2022-09-02T06:14:33.066Z,80.7
2022-09-02T06:20:10.014Z,80.8
2022-09-02T06:25:46.785Z,80.7
2022-09-02T06:31:21.822Z,82.3
2022-09-02T06:36:58.737Z,82.9
2022-09-02T06:42:33.584Z,83.6
2022-09-02T06:48:08.754Z,83.9
2022-09-02T06:53:43.599Z,84.3
2022-09-02T06:59:18.414Z,84.3
2022-09-02T07:04:57.732Z,83.2
2022-09-02T07:10:32.962Z,83.1
2022-09-02T07:16:07.941Z,82.1
2022-09-02T07:21:44.535Z,82.1
2022-09-02T07:27:20.245Z,82.5
2022-09-02T07:32:55.453Z,80.8
2022-09-02T07:38:30.270Z,80.2
2022-09-02T07:44:06.255Z,78.8
2022-09-02T07:50:16.149Z,78.7
2022-09-02T07:55:56.934Z,78.2
2022-09-02T08:01:54.259Z,78
2022-09-02T08:07:31.056Z,78.6
2022-09-02T08:13:13.080Z,77.6
2022-09-02T08:18:48.602Z,78.2
2022-09-02T08:24:23.458Z,79.4
2022-09-02T08:29:58.268Z,78.4
2022-09-02T08:35:34.039Z,79.4
2022-09-02T08:41:08.771Z,78.5
2022-09-02T08:46:44.827Z,78.7
2022-09-02T08:52:19.962Z,78.3
2022-09-02T08:57:55.310Z,77.6
2022-09-02T09:03:53.029Z,76.7
2022-09-02T09:09:25.559Z,76.7
2022-09-02T09:15:01.343Z,75.2
2022-09-02T09:20:36.248Z,74.8
2022-09-02T09:26:11.769Z,75.8
2022-09-02T09:31:46.793Z,74
2022-09-02T09:37:23.343Z,72.2
2022-09-02T09:42:58.625Z,73.1
2022-09-02T09:48:34.159Z,70.9
2022-09-02T09:54:09.052Z,71.6
2022-09-02T09:59:43.967Z,73.2
2022-09-02T10:05:19.007Z,74.3
2022-09-02T10:10:54.693Z,75.7
2022-09-02T10:16:30.791Z,75.5
2022-09-02T10:22:06.139Z,72.9
2022-09-02T10:27:41.077Z,72.8
2022-09-02T10:33:16.153Z,69.9
2022-09-02T10:38:51.110Z,67.9
2022-09-02T10:44:26.716Z,66.2
2022-09-02T10:50:01.678Z,64.8
2022-09-02T10:55:37.197Z,63.1
2022-09-02T11:01:12.479Z,58.4
2022-09-02T11:07:04.421Z,57.1
2022-09-02T11:12:39.634Z,58.7
2022-09-02T11:23:51.933Z,56.5
2022-09-02T11:29:27.230Z,56.3
2022-09-02T11:35:03.201Z,56.5
2022-09-02T11:40:41.629Z,55
2022-09-02T11:46:19.819Z,54
2022-09-02T11:51:56.322Z,52.2
2022-09-02T11:57:36.844Z,58.5
2022-09-02T12:04:27.409Z,62
2022-09-02T12:10:38.375Z,63.8
2022-09-02T12:16:15.986Z,64.8
2022-09-02T12:21:54.836Z,64.9
2022-09-02T12:27:31.939Z,65
2022-09-02T12:33:07.860Z,65
2022-09-02T12:38:43.105Z,65.4
2022-09-02T12:44:17.882Z,65.3
2022-09-02T12:49:52.982Z,66.1
2022-09-02T12:55:28.011Z,66.3
2022-09-02T13:01:03.010Z,66.8
2022-09-02T13:06:38.730Z,67.3
2022-09-02T13:12:13.440Z,67.7
2022-09-02T13:17:48.174Z,68.3
2022-09-02T13:24:43.064Z,68.2
2022-09-02T13:30:18.516Z,68.5
2022-09-02T13:35:54.230Z,68.6
2022-09-02T13:41:29.010Z,68.7
2022-09-02T13:47:04.163Z,68.4
2022-09-02T13:54:05.356Z,67.9
2022-09-02T14:00:00.575Z,67.1
2022-09-02T14:05:36.080Z,67.2
2022-09-02T14:11:16.141Z,66.9
2022-09-02T14:16:51.026Z,66.4
2022-09-02T14:22:26.457Z,66.4
2022-09-02T14:28:01.532Z,66.3
2022-09-02T14:33:37.671Z,65.9
2022-09-02T14:39:12.764Z,65.8
2022-09-02T14:44:47.546Z,66.6
2022-09-02T14:50:23.379Z,66.8
2022-09-02T14:55:59.468Z,67.5
2022-09-02T15:01:34.813Z,69.3
2022-09-02T15:07:10.723Z,67.2
2022-09-02T15:12:45.691Z,68.8
2022-09-02T15:18:21.750Z,68
2022-09-02T15:23:57.594Z,69.2
2022-09-02T15:29:32.600Z,68.1
2022-09-02T15:35:07.459Z,68.5
2022-09-02T15:40:42.301Z,69.8
2022-09-02T15:46:17.274Z,69.5
2022-09-02T15:51:55.567Z,70
2022-09-02T15:57:31.750Z,70.9
2022-09-02T16:03:28.322Z,70.5
2022-09-02T16:09:01.857Z,70.4
2022-09-02T16:14:37.783Z,71.3
2022-09-02T16:20:12.684Z,69.3
2022-09-02T16:25:49.553Z,66.2
2022-09-02T16:31:26.030Z,66.5
2022-09-02T16:37:01.338Z,69.2
2022-09-02T16:42:38.736Z,70.8
2022-09-02T16:48:13.563Z,70
2022-09-02T16:53:50.281Z,70.8
2022-09-02T16:59:24.996Z,70.7
2022-09-02T17:04:59.595Z,70.9
2022-09-02T17:10:34.470Z,72.6
2022-09-02T17:16:10.082Z,74
2022-09-02T17:21:47.560Z,74.2
2022-09-02T17:27:22.204Z,76.1
2022-09-02T17:32:57.093Z,75.9
2022-09-02T17:38:31.869Z,77
2022-09-02T17:44:06.822Z,76.7
2022-09-02T17:49:42.614Z,78.1
2022-09-02T17:55:17.361Z,77.6
2022-09-02T18:00:52.954Z,77.6
2022-09-02T18:06:30.790Z,75.7
2022-09-02T18:12:08.843Z,75.6
2022-09-02T18:17:43.805Z,77.3
2022-09-02T18:23:18.649Z,77.1
2022-09-02T18:28:53.642Z,79.1
2022-09-02T18:34:31.001Z,79.8
2022-09-02T18:40:05.907Z,80.2
2022-09-02T18:45:42.575Z,80.4
2022-09-02T18:51:18.597Z,80.4
2022-09-02T18:56:55.335Z,80.8
2022-09-02T19:02:30.487Z,82.2
2022-09-02T19:08:05.353Z,82.2
2022-09-02T19:13:41.189Z,80.2
2022-09-02T19:19:16.212Z,80.6
2022-09-02T19:24:51.339Z,80.9
2022-09-02T19:30:26.378Z,81.5
2022-09-02T19:36:01.668Z,81.1
2022-09-02T19:41:36.514Z,81.3
2022-09-02T19:48:11.704Z,81.8
2022-09-02T19:53:47.604Z,81.1
2022-09-02T19:59:22.517Z,81.8
2022-09-02T20:04:57.324Z,80.6
2022-09-02T20:10:32.139Z,79.7
2022-09-02T20:16:07.545Z,79.4
2022-09-02T20:22:05.108Z,78.4
2022-09-02T20:27:38.831Z,78.3
2022-09-02T20:33:13.627Z,78.1
2022-09-02T20:38:49.422Z,77.9
2022-09-02T20:44:24.389Z,77.7
2022-09-02T20:49:59.298Z,77.7
2022-09-02T20:55:35.886Z,77.7
2022-09-02T21:01:10.957Z,77.6
2022-09-02T21:06:46.569Z,77.7
2022-09-02T21:12:21.724Z,77.7
2022-09-02T21:18:19.799Z,77.6
2022-09-02T21:24:15.502Z,77.7
2022-09-02T21:29:50.519Z,77.8
2022-09-02T21:35:25.224Z,77.7
2022-09-02T21:41:00.109Z,77.8
2022-09-02T21:46:36.483Z,77.9
2022-09-02T21:52:11.938Z,78
2022-09-02T21:57:47.255Z,78.1
2022-09-02T22:03:23.346Z,78.2
2022-09-02T22:08:58.319Z,78.3
2022-09-02T22:14:33.156Z,78.4
2022-09-02T22:20:08.049Z,78.4
2022-09-02T22:26:04.805Z,78.3
2022-09-02T22:31:39.088Z,78.3
2022-09-02T22:37:15.086Z,78.2
2022-09-02T22:42:49.912Z,78.2
2022-09-02T22:48:25.854Z,78.3
2022-09-02T22:54:00.824Z,78.2
2022-09-02T22:59:35.647Z,78.2
2022-09-02T23:05:11.412Z,78.2
2022-09-02T23:10:47.576Z,78.3
2022-09-02T23:16:22.778Z,78.4
2022-09-02T23:21:58.217Z,78.4
2022-09-02T23:27:34.082Z,78.6
2022-09-02T23:33:08.766Z,78.7
2022-09-02T23:38:43.789Z,78.9
2022-09-02T23:44:19.667Z,79
2022-09-02T23:49:58.006Z,79.1
2022-09-02T23:55:32.795Z,79.2
